RYR96TV LZIB-EPMO
Flight info
| Callsign | RYR96TV |
|---|---|
| Flight time | N/A |
| Altitude | 35000 |
| Route | NIT M985 NIDOK M866 BABKO/N0442F350 DCT ORTEB DCT KONZI DCT LOGDA |
| Aircraft | B738/M-SDGIJ1LRWY/SB1 |
Departure
| Time | N/A |
|---|---|
| Airport | M. R. Štefánik Airport (LZIB) |
Arrival
| Time | 2026-05-03 21:07 |
|---|---|
| Airport | Warsaw Modlin Airport (EPMO) |
| Time | Latitude | Longitude | Altitude | Speed | Heading |
|---|---|---|---|---|---|
| 2026-05-03 20:15 | 48.78562 | 18.23316 | 30093 ft | 429 kts | 42° |
| 2026-05-03 20:15 | 48.80703 | 18.26442 | 30563 ft | 432 kts | 42° |
| 2026-05-03 20:15 | 48.82853 | 18.29587 | 31225 ft | 428 kts | 42° |
| 2026-05-03 20:15 | 48.84986 | 18.32713 | 31939 ft | 424 kts | 42° |
| 2026-05-03 20:16 | 48.87086 | 18.35792 | 32499 ft | 423 kts | 42° |
| 2026-05-03 20:16 | 48.89183 | 18.38871 | 33027 ft | 421 kts | 42° |
| 2026-05-03 20:16 | 48.91272 | 18.41943 | 33580 ft | 420 kts | 42° |
| 2026-05-03 20:16 | 48.93386 | 18.45053 | 34067 ft | 419 kts | 42° |
| 2026-05-03 20:17 | 48.95497 | 18.48164 | 34565 ft | 418 kts | 42° |
| 2026-05-03 20:17 | 48.97599 | 18.51264 | 34974 ft | 420 kts | 41° |
| 2026-05-03 20:17 | 48.99741 | 18.54427 | 35130 ft | 422 kts | 41° |
| 2026-05-03 20:18 | 49.03975 | 18.60693 | 35131 ft | 414 kts | 41° |
| 2026-05-03 20:18 | 49.08129 | 18.66856 | 35128 ft | 416 kts | 42° |
| 2026-05-03 20:19 | 49.12321 | 18.73088 | 35125 ft | 416 kts | 43° |
| 2026-05-03 20:19 | 49.16460 | 18.79261 | 35126 ft | 417 kts | 43° |
| 2026-05-03 20:20 | 49.20599 | 18.85446 | 35114 ft | 416 kts | 43° |
| 2026-05-03 20:20 | 49.24742 | 18.91653 | 35116 ft | 415 kts | 42° |
| 2026-05-03 20:21 | 49.28849 | 18.97820 | 35120 ft | 415 kts | 42° |
| 2026-05-03 20:21 | 49.32999 | 19.04069 | 35117 ft | 415 kts | 42° |
| 2026-05-03 20:22 | 49.37112 | 19.10278 | 35117 ft | 415 kts | 42° |
| 2026-05-03 20:22 | 49.41209 | 19.16476 | 35127 ft | 415 kts | 42° |
| 2026-05-03 20:23 | 49.45324 | 19.22717 | 35127 ft | 416 kts | 42° |
| 2026-05-03 20:23 | 49.49413 | 19.28935 | 35130 ft | 416 kts | 42° |
| 2026-05-03 20:24 | 49.53534 | 19.35217 | 35118 ft | 417 kts | 42° |
| 2026-05-03 20:24 | 49.57628 | 19.41474 | 35119 ft | 416 kts | 43° |
| 2026-05-03 20:25 | 49.61573 | 19.48039 | 35113 ft | 417 kts | 48° |
| 2026-05-03 20:25 | 49.65030 | 19.55198 | 35105 ft | 418 kts | 52° |
| 2026-05-03 20:26 | 49.68356 | 19.62574 | 35112 ft | 419 kts | 52° |
| 2026-05-03 20:26 | 49.71671 | 19.69986 | 35108 ft | 420 kts | 53° |
| 2026-05-03 20:27 | 49.74990 | 19.77398 | 35113 ft | 419 kts | 53° |
| 2026-05-03 20:27 | 49.78288 | 19.84759 | 35102 ft | 419 kts | 53° |
| 2026-05-03 20:28 | 49.81612 | 19.92184 | 35100 ft | 420 kts | 53° |
| 2026-05-03 20:28 | 49.84948 | 19.99653 | 35087 ft | 419 kts | 53° |
| 2026-05-03 20:29 | 49.88247 | 20.07056 | 35090 ft | 420 kts | 53° |
| 2026-05-03 20:29 | 49.91569 | 20.14531 | 35088 ft | 420 kts | 53° |
| 2026-05-03 20:30 | 49.94879 | 20.22000 | 35076 ft | 419 kts | 53° |
| 2026-05-03 20:30 | 49.98177 | 20.29466 | 35078 ft | 420 kts | 53° |
| 2026-05-03 20:31 | 50.01474 | 20.36951 | 35076 ft | 420 kts | 53° |
| 2026-05-03 20:31 | 50.04773 | 20.44448 | 35069 ft | 419 kts | 52° |
| 2026-05-03 20:32 | 50.08513 | 20.51302 | 35070 ft | 416 kts | 38° |
| 2026-05-03 20:32 | 50.10905 | 20.53863 | 35069 ft | 414 kts | 27° |
| 2026-05-03 20:32 | 50.13521 | 20.55758 | 35065 ft | 413 kts | 20° |
| 2026-05-03 20:33 | 50.19011 | 20.58125 | 35066 ft | 413 kts | 8° |
| 2026-05-03 20:33 | 50.24736 | 20.58900 | 35068 ft | 413 kts | 2° |
| 2026-05-03 20:34 | 50.30478 | 20.59294 | 35068 ft | 413 kts | 2° |
| 2026-05-03 20:34 | 50.36226 | 20.59739 | 35065 ft | 413 kts | 2° |
| 2026-05-03 20:35 | 50.41958 | 20.60267 | 35066 ft | 413 kts | 3° |
| 2026-05-03 20:35 | 50.47720 | 20.60843 | 35065 ft | 413 kts | 3° |
| 2026-05-03 20:36 | 50.53440 | 20.61433 | 35067 ft | 413 kts | 3° |
| 2026-05-03 20:36 | 50.59117 | 20.62026 | 34653 ft | 403 kts | 3° |
| 2026-05-03 20:36 | 50.61916 | 20.62318 | 34136 ft | 404 kts | 3° |
| 2026-05-03 20:37 | 50.64701 | 20.62610 | 33503 ft | 404 kts | 3° |
| 2026-05-03 20:37 | 50.67514 | 20.62905 | 32836 ft | 404 kts | 3° |
| 2026-05-03 20:37 | 50.70301 | 20.63197 | 32147 ft | 405 kts | 3° |
| 2026-05-03 20:37 | 50.73105 | 20.63490 | 31433 ft | 406 kts | 3° |
| 2026-05-03 20:38 | 50.75919 | 20.63786 | 30713 ft | 407 kts | 3° |
| 2026-05-03 20:38 | 50.78726 | 20.64081 | 30170 ft | 405 kts | 3° |
| 2026-05-03 20:38 | 50.81580 | 20.64382 | 29707 ft | 414 kts | 3° |
| 2026-05-03 20:38 | 50.84459 | 20.64686 | 29190 ft | 417 kts | 3° |
| 2026-05-03 20:39 | 50.87328 | 20.64990 | 28676 ft | 411 kts | 2° |
| 2026-05-03 20:39 | 50.90158 | 20.65290 | 28171 ft | 405 kts | 3° |
| 2026-05-03 20:39 | 50.92984 | 20.65590 | 27664 ft | 400 kts | 3° |
| 2026-05-03 20:39 | 50.95744 | 20.65883 | 27161 ft | 395 kts | 3° |
| 2026-05-03 20:40 | 50.98482 | 20.66174 | 26656 ft | 391 kts | 3° |
| 2026-05-03 20:40 | 51.01190 | 20.66462 | 26165 ft | 396 kts | 3° |
| 2026-05-03 20:40 | 51.03936 | 20.66753 | 25656 ft | 395 kts | 3° |
| 2026-05-03 20:40 | 51.06646 | 20.67043 | 25144 ft | 390 kts | 3° |
| 2026-05-03 20:41 | 51.09322 | 20.67329 | 24630 ft | 384 kts | 3° |
| 2026-05-03 20:41 | 51.11961 | 20.67612 | 24137 ft | 379 kts | 3° |
| 2026-05-03 20:41 | 51.14595 | 20.67894 | 23643 ft | 374 kts | 2° |
| 2026-05-03 20:41 | 51.17162 | 20.68169 | 23147 ft | 374 kts | 2° |
| 2026-05-03 20:42 | 51.19797 | 20.68450 | 22637 ft | 379 kts | 2° |
| 2026-05-03 20:42 | 51.22414 | 20.68734 | 22135 ft | 376 kts | 3° |
| 2026-05-03 20:42 | 51.24979 | 20.69232 | 21628 ft | 372 kts | 9° |
| 2026-05-03 20:42 | 51.27481 | 20.70343 | 21149 ft | 369 kts | 20° |
| 2026-05-03 20:43 | 51.29735 | 20.72165 | 21047 ft | 366 kts | 29° |
| 2026-05-03 20:43 | 51.31862 | 20.74473 | 21057 ft | 376 kts | 35° |
| 2026-05-03 20:43 | 51.33914 | 20.77164 | 21056 ft | 379 kts | 39° |
| 2026-05-03 20:43 | 51.35862 | 20.79983 | 21054 ft | 379 kts | 41° |
| 2026-05-03 20:44 | 51.37790 | 20.82873 | 21044 ft | 379 kts | 41° |
| 2026-05-03 20:44 | 51.39702 | 20.85759 | 21046 ft | 380 kts | 41° |
| 2026-05-03 20:44 | 51.41634 | 20.88675 | 21043 ft | 379 kts | 41° |
| 2026-05-03 20:44 | 51.43534 | 20.91529 | 21033 ft | 372 kts | 41° |
| 2026-05-03 20:45 | 51.45375 | 20.94290 | 21028 ft | 357 kts | 41° |
| 2026-05-03 20:45 | 51.47181 | 20.96989 | 21035 ft | 361 kts | 40° |
| 2026-05-03 20:45 | 51.49062 | 20.99791 | 21030 ft | 367 kts | 40° |
| 2026-05-03 20:45 | 51.50921 | 21.02557 | 21029 ft | 366 kts | 40° |
| 2026-05-03 20:46 | 51.52777 | 21.05323 | 21035 ft | 366 kts | 41° |
| 2026-05-03 20:46 | 51.54632 | 21.08088 | 21033 ft | 366 kts | 40° |
| 2026-05-03 20:46 | 51.56502 | 21.10880 | 21044 ft | 366 kts | 40° |
| 2026-05-03 20:46 | 51.58350 | 21.13640 | 21047 ft | 366 kts | 40° |
| 2026-05-03 20:47 | 51.60216 | 21.16431 | 21038 ft | 366 kts | 40° |
| 2026-05-03 20:47 | 51.62079 | 21.19220 | 21036 ft | 366 kts | 40° |
| 2026-05-03 20:47 | 51.63945 | 21.22017 | 21029 ft | 366 kts | 40° |
| 2026-05-03 20:47 | 51.65802 | 21.24806 | 21032 ft | 366 kts | 40° |
| 2026-05-03 20:48 | 51.67680 | 21.27629 | 21040 ft | 366 kts | 40° |
| 2026-05-03 20:48 | 51.69521 | 21.30397 | 21033 ft | 367 kts | 40° |
| 2026-05-03 20:48 | 51.71390 | 21.33212 | 21034 ft | 366 kts | 40° |
| 2026-05-03 20:48 | 51.73243 | 21.36007 | 21032 ft | 367 kts | 40° |
| 2026-05-03 20:49 | 51.75097 | 21.38805 | 21031 ft | 364 kts | 40° |
| 2026-05-03 20:49 | 51.76924 | 21.41571 | 21029 ft | 353 kts | 40° |
| 2026-05-03 20:49 | 51.78704 | 21.44267 | 20988 ft | 351 kts | 40° |
| 2026-05-03 20:49 | 51.80477 | 21.46956 | 20627 ft | 348 kts | 40° |
| 2026-05-03 20:50 | 51.82220 | 21.49600 | 20194 ft | 345 kts | 40° |
| 2026-05-03 20:50 | 51.83950 | 21.52229 | 19749 ft | 342 kts | 40° |
| 2026-05-03 20:50 | 51.85685 | 21.54866 | 19309 ft | 342 kts | 40° |
| 2026-05-03 20:50 | 51.87452 | 21.57475 | 18873 ft | 346 kts | 37° |
| 2026-05-03 20:51 | 51.89389 | 21.59763 | 18417 ft | 341 kts | 26° |
| 2026-05-03 20:51 | 51.91522 | 21.61238 | 17979 ft | 334 kts | 13° |
| 2026-05-03 20:51 | 51.93754 | 21.61976 | 17547 ft | 328 kts | 4° |
| 2026-05-03 20:51 | 51.96035 | 21.62253 | 17111 ft | 324 kts | 357° |
| 2026-05-03 20:52 | 51.98251 | 21.62013 | 16686 ft | 319 kts | 349° |
| 2026-05-03 20:52 | 52.00429 | 21.61418 | 16255 ft | 316 kts | 346° |
| 2026-05-03 20:52 | 52.02576 | 21.60708 | 15829 ft | 320 kts | 345° |
| 2026-05-03 20:52 | 52.04752 | 21.59990 | 15400 ft | 321 kts | 346° |
| 2026-05-03 20:53 | 52.06954 | 21.59301 | 14965 ft | 319 kts | 346° |
| 2026-05-03 20:53 | 52.09113 | 21.58656 | 14536 ft | 316 kts | 346° |
| 2026-05-03 20:53 | 52.11285 | 21.58024 | 14109 ft | 314 kts | 347° |
| 2026-05-03 20:53 | 52.13406 | 21.57414 | 13684 ft | 312 kts | 347° |
| 2026-05-03 20:54 | 52.15537 | 21.56800 | 13260 ft | 311 kts | 347° |
| 2026-05-03 20:54 | 52.19749 | 21.55545 | 12548 ft | 301 kts | 343° |
| 2026-05-03 20:54 | 52.21717 | 21.54546 | 12319 ft | 292 kts | 336° |
| 2026-05-03 20:55 | 52.23575 | 21.53275 | 11893 ft | 291 kts | 332° |
| 2026-05-03 20:55 | 52.25410 | 21.51906 | 11502 ft | 290 kts | 332° |
| 2026-05-03 20:55 | 52.27236 | 21.50548 | 11115 ft | 289 kts | 333° |
| 2026-05-03 20:55 | 52.29083 | 21.49210 | 10725 ft | 288 kts | 333° |
| 2026-05-03 20:56 | 52.30904 | 21.47917 | 10341 ft | 287 kts | 333° |
| 2026-05-03 20:56 | 52.32739 | 21.46625 | 10012 ft | 284 kts | 333° |
| 2026-05-03 20:56 | 52.34495 | 21.45392 | 9880 ft | 274 kts | 333° |
| 2026-05-03 20:56 | 52.36264 | 21.44149 | 9470 ft | 275 kts | 333° |
| 2026-05-03 20:57 | 52.37997 | 21.42924 | 9096 ft | 275 kts | 333° |
| 2026-05-03 20:57 | 52.39768 | 21.41672 | 8733 ft | 274 kts | 333° |
| 2026-05-03 20:57 | 52.41503 | 21.40445 | 8381 ft | 273 kts | 333° |
| 2026-05-03 20:57 | 52.43224 | 21.39226 | 8031 ft | 272 kts | 333° |
| 2026-05-03 20:58 | 52.44967 | 21.37992 | 7681 ft | 270 kts | 333° |
| 2026-05-03 20:58 | 52.46672 | 21.36783 | 7336 ft | 269 kts | 333° |
| 2026-05-03 20:58 | 52.48370 | 21.35565 | 7148 ft | 260 kts | 331° |
| 2026-05-03 20:58 | 52.49877 | 21.34064 | 7066 ft | 245 kts | 315° |
| 2026-05-03 20:59 | 52.50796 | 21.31888 | 6920 ft | 231 kts | 286° |
| 2026-05-03 20:59 | 52.50965 | 21.29310 | 6599 ft | 229 kts | 264° |
| 2026-05-03 20:59 | 52.50733 | 21.26710 | 6287 ft | 229 kts | 261° |
| 2026-05-03 20:59 | 52.50499 | 21.24148 | 5982 ft | 229 kts | 261° |
| 2026-05-03 21:00 | 52.50277 | 21.21564 | 5688 ft | 229 kts | 261° |
| 2026-05-03 21:00 | 52.50129 | 21.19859 | 5490 ft | 228 kts | 261° |
| 2026-05-03 21:00 | 52.49827 | 21.16415 | 5096 ft | 228 kts | 261° |
| 2026-05-03 21:00 | 52.49600 | 21.13859 | 4782 ft | 227 kts | 261° |
| 2026-05-03 21:01 | 52.49372 | 21.11314 | 4496 ft | 225 kts | 260° |
| 2026-05-03 21:01 | 52.49147 | 21.08798 | 4328 ft | 219 kts | 260° |
| 2026-05-03 21:01 | 52.48931 | 21.06376 | 4246 ft | 209 kts | 260° |
| 2026-05-03 21:01 | 52.48724 | 21.04076 | 4195 ft | 199 kts | 260° |
| 2026-05-03 21:02 | 52.48526 | 21.01865 | 4128 ft | 189 kts | 260° |
| 2026-05-03 21:02 | 52.48340 | 20.99806 | 4067 ft | 180 kts | 259° |
| 2026-05-03 21:02 | 52.48157 | 20.97786 | 3999 ft | 177 kts | 259° |
| 2026-05-03 21:02 | 52.47973 | 20.95781 | 3899 ft | 179 kts | 259° |
| 2026-05-03 21:03 | 52.47787 | 20.93794 | 3747 ft | 174 kts | 259° |
| 2026-05-03 21:03 | 52.47608 | 20.91863 | 3540 ft | 171 kts | 259° |
| 2026-05-03 21:03 | 52.47429 | 20.89938 | 3351 ft | 167 kts | 259° |
| 2026-05-03 21:03 | 52.47255 | 20.88086 | 3186 ft | 162 kts | 259° |
| 2026-05-03 21:04 | 52.47088 | 20.86295 | 3030 ft | 157 kts | 258° |
| 2026-05-03 21:04 | 52.46928 | 20.84562 | 2852 ft | 152 kts | 258° |
| 2026-05-03 21:04 | 52.46774 | 20.82894 | 2580 ft | 146 kts | 258° |
| 2026-05-03 21:04 | 52.46625 | 20.81276 | 2344 ft | 140 kts | 258° |
| 2026-05-03 21:05 | 52.46481 | 20.79724 | 2137 ft | 140 kts | 258° |
| 2026-05-03 21:05 | 52.46337 | 20.78167 | 1932 ft | 133 kts | 257° |
| 2026-05-03 21:05 | 52.46201 | 20.76691 | 1718 ft | 131 kts | 257° |
| 2026-05-03 21:05 | 52.46061 | 20.75224 | 1512 ft | 132 kts | 258° |
| 2026-05-03 21:06 | 52.45923 | 20.73732 | 1309 ft | 134 kts | 258° |
| 2026-05-03 21:06 | 52.45782 | 20.72201 | 1097 ft | 136 kts | 258° |
| 2026-05-03 21:06 | 52.45640 | 20.70683 | 900 ft | 136 kts | 258° |
| 2026-05-03 21:06 | 52.45481 | 20.69133 | 665 ft | 139 kts | 258° |
| 2026-05-03 21:07 | 52.45339 | 20.67546 | 457 ft | 142 kts | 259° |
| 2026-05-03 21:07 | 52.45187 | 20.65965 | 354 ft | 138 kts | 260° |
| 2026-05-03 21:07 | 52.45067 | 20.64707 | 345 ft | 80 kts | 262° |
| 2026-05-03 21:07 | 52.45004 | 20.64053 | 344 ft | 48 kts | 261° |
| 2026-05-03 21:08 | 52.44961 | 20.63556 | 346 ft | 27 kts | 259° |
| 2026-05-03 21:08 | 52.44904 | 20.63397 | 347 ft | 14 kts | 192° |
| 2026-05-03 21:08 | 52.44804 | 20.63413 | 347 ft | 14 kts | 172° |
| 2026-05-03 21:08 | 52.44706 | 20.63437 | 347 ft | 14 kts | 171° |
| 2026-05-03 21:09 | 52.44627 | 20.63502 | 348 ft | 13 kts | 101° |
| 2026-05-03 21:09 | 52.44640 | 20.63654 | 347 ft | 13 kts | 81° |
| 2026-05-03 21:09 | 52.44655 | 20.63815 | 347 ft | 14 kts | 82° |
| 2026-05-03 21:09 | 52.44672 | 20.63999 | 346 ft | 20 kts | 82° |
| 2026-05-03 21:10 | 52.44699 | 20.64302 | 346 ft | 32 kts | 81° |
| 2026-05-03 21:10 | 52.44736 | 20.64675 | 347 ft | 32 kts | 81° |
| 2026-05-03 21:10 | 52.44769 | 20.65014 | 348 ft | 20 kts | 81° |
| 2026-05-03 21:10 | 52.44782 | 20.65160 | 349 ft | 2 kts | 83° |
| 2026-05-03 21:11 | 52.44778 | 20.65183 | 349 ft | 1 kts | 122° |
| 2026-05-03 21:11 | 52.44769 | 20.65195 | 349 ft | 1 kts | 153° |
| 2026-05-03 21:11 | 52.44764 | 20.65193 | 349 ft | 0 kts | 196° |
| 2026-05-03 21:11 | 52.44754 | 20.65188 | 349 ft | 2 kts | 199° |
| 2026-05-03 21:12 | 52.44744 | 20.65181 | 350 ft | 1 kts | 204° |
| 2026-05-03 21:12 | 52.44739 | 20.65178 | 350 ft | 0 kts | 204° |
| 2026-05-03 21:12 | 52.44738 | 20.65177 | 350 ft | 0 kts | 205° |